createdAt,value
2018-12-19T00:02:08.234Z,88.33
2018-12-19T00:04:41.647Z,91.20
2018-12-19T00:07:13.816Z,97.70
2018-12-19T00:09:43.900Z,93.37
2018-12-19T00:12:14.049Z,92.70
2018-12-19T00:14:44.206Z,89.40
2018-12-19T00:17:16.280Z,97.10
2018-12-19T00:19:49.913Z,97.40
2018-12-19T00:22:20.073Z,91.37
2018-12-19T00:24:50.943Z,94.97
2018-12-19T00:27:23.046Z,97.97
2018-12-19T00:29:55.219Z,99.00
2018-12-19T00:32:29.063Z,93.77
2018-12-19T00:35:01.318Z,84.93
2018-12-19T00:37:31.873Z,87.93
2018-12-19T00:40:01.962Z,86.07
2018-12-19T00:42:32.779Z,83.87
2018-12-19T00:45:02.891Z,89.20
2018-12-19T00:47:34.124Z,93.80
2018-12-19T00:50:04.326Z,93.33
2018-12-19T00:52:34.389Z,99.13
2018-12-19T00:55:04.476Z,100.70
2018-12-19T00:57:34.712Z,96.43
2018-12-19T01:00:06.567Z,101.60
2018-12-19T01:02:37.202Z,92.20
2018-12-19T01:05:07.272Z,87.97
2018-12-19T01:07:39.096Z,94.50
2018-12-19T01:10:09.256Z,93.07
2018-12-19T01:12:39.485Z,88.40
2018-12-19T01:15:09.578Z,91.00
2018-12-19T01:17:39.652Z,91.40
2018-12-19T01:20:09.710Z,89.53
2018-12-19T01:22:39.885Z,82.47
2018-12-19T01:25:09.933Z,90.13
2018-12-19T01:27:40.154Z,90.93
2018-12-19T01:30:10.209Z,90.10
2018-12-19T01:32:40.352Z,90.90
2018-12-19T01:35:10.393Z,90.83
2018-12-19T01:37:40.466Z,93.93
2018-12-19T01:40:10.536Z,90.43
2018-12-19T01:42:40.698Z,97.40
2018-12-19T01:45:10.745Z,90.30
2018-12-19T01:47:40.827Z,70.50
2018-12-19T01:50:10.869Z,84.13
2018-12-19T01:52:41.067Z,85.23
2018-12-19T01:55:11.128Z,89.60
2018-12-19T01:57:41.178Z,86.03
2018-12-19T02:00:11.260Z,93.17
2018-12-19T02:02:41.307Z,91.07
2018-12-19T02:05:11.363Z,60.13
2018-12-19T02:07:41.460Z,77.90
2018-12-19T02:10:11.497Z,79.47
2018-12-19T02:12:41.554Z,85.27
2018-12-19T02:15:11.617Z,83.03
2018-12-19T02:17:41.693Z,83.87
2018-12-19T02:20:11.795Z,79.90
2018-12-19T02:22:42.024Z,84.10
2018-12-19T02:25:12.067Z,86.30
2018-12-19T02:27:42.163Z,85.13
2018-12-19T02:30:12.203Z,86.33
2018-12-19T02:32:42.501Z,85.97
2018-12-19T02:35:12.538Z,91.50
2018-12-19T02:37:42.739Z,92.00
2018-12-19T02:40:12.913Z,91.43
2018-12-19T02:42:42.977Z,95.57
2018-12-19T02:45:13.056Z,94.07
2018-12-19T02:47:43.104Z,94.00
2018-12-19T02:50:13.132Z,83.07
2018-12-19T02:52:43.200Z,96.03
2018-12-19T02:55:13.246Z,98.70
2018-12-19T02:57:43.277Z,98.10
2018-12-19T03:00:13.379Z,97.53
2018-12-19T03:02:43.421Z,100.53
2018-12-19T03:05:13.513Z,101.13
2018-12-19T03:07:43.763Z,97.20
2018-12-19T03:10:13.931Z,100.23
2018-12-19T03:12:43.970Z,98.13
2018-12-19T03:15:14.025Z,101.73
2018-12-19T03:17:44.106Z,105.37
2018-12-19T03:20:14.200Z,106.20
2018-12-19T03:22:44.366Z,106.17
2018-12-19T03:25:14.407Z,106.53
2018-12-19T03:27:44.480Z,101.73
2018-12-19T03:30:14.514Z,99.13
2018-12-19T03:32:45.721Z,100.13
2018-12-19T03:35:15.846Z,104.53
2018-12-19T03:37:45.977Z,104.87
2018-12-19T03:40:16.025Z,97.30
2018-12-19T03:42:46.099Z,101.97
2018-12-19T03:45:16.163Z,105.87
2018-12-19T03:47:46.445Z,103.90
2018-12-19T03:50:16.504Z,100.10
2018-12-19T03:52:46.589Z,106.60
2018-12-19T03:55:16.635Z,115.67
2018-12-19T03:57:46.839Z,107.53
2018-12-19T04:00:16.922Z,125.63
2018-12-19T04:02:47.132Z,121.87
2018-12-19T04:05:17.177Z,128.30
2018-12-19T04:07:47.248Z,120.87
2018-12-19T04:10:17.411Z,118.47
2018-12-19T04:12:47.457Z,113.67
2018-12-19T04:15:17.601Z,112.67
2018-12-19T04:17:47.731Z,113.33
2018-12-19T04:20:17.945Z,116.70
2018-12-19T04:22:48.009Z,118.83
2018-12-19T04:25:18.112Z,116.23
2018-12-19T04:27:48.175Z,110.03
2018-12-19T04:30:18.234Z,103.90
2018-12-19T04:32:48.637Z,107.93
2018-12-19T04:35:18.823Z,110.77
2018-12-19T04:37:48.930Z,105.20
2018-12-19T04:40:19.012Z,102.40
2018-12-19T04:42:49.060Z,108.70
2018-12-19T04:45:19.141Z,103.30
2018-12-19T04:47:49.209Z,109.73
2018-12-19T04:50:19.283Z,108.87
2018-12-19T04:52:49.355Z,114.20
2018-12-19T04:55:19.385Z,115.17
2018-12-19T04:57:49.445Z,86.77
2018-12-19T05:00:19.525Z,112.47
2018-12-19T05:02:49.584Z,64.90
2018-12-19T05:05:19.898Z,116.27
2018-12-19T05:07:50.302Z,126.00
2018-12-19T05:10:20.354Z,115.03
2018-12-19T05:12:50.477Z,130.10
2018-12-19T05:15:20.521Z,104.67
2018-12-19T05:17:50.573Z,112.47
2018-12-19T05:20:20.610Z,110.70
2018-12-19T05:22:50.654Z,111.37
2018-12-19T05:25:20.759Z,114.27
2018-12-19T05:27:50.821Z,113.07
2018-12-19T05:30:21.104Z,111.50
2018-12-19T05:32:51.192Z,108.90
2018-12-19T05:35:21.249Z,105.90
2018-12-19T05:37:51.345Z,102.73
2018-12-19T05:40:21.452Z,108.47
2018-12-19T05:42:51.513Z,101.07
2018-12-19T05:45:21.534Z,98.37
2018-12-19T05:47:51.619Z,108.30
2018-12-19T05:50:24.302Z,106.40
2018-12-19T05:52:54.422Z,109.77
2018-12-19T05:55:24.492Z,105.53
2018-12-19T05:57:54.560Z,104.90
2018-12-19T06:00:24.593Z,102.03
2018-12-19T06:02:56.684Z,104.67
2018-12-19T06:05:26.766Z,111.20
2018-12-19T06:07:56.805Z,99.90
2018-12-19T06:10:26.950Z,106.67
2018-12-19T06:12:57.125Z,91.07
2018-12-19T06:15:27.336Z,105.00
2018-12-19T06:17:59.432Z,101.13
2018-12-19T06:20:29.492Z,87.97
2018-12-19T06:22:59.559Z,90.27
2018-12-19T06:25:29.644Z,116.90
2018-12-19T06:27:59.793Z,108.27
2018-12-19T06:30:30.435Z,99.17
2018-12-19T06:33:00.530Z,104.00
2018-12-19T06:35:30.643Z,101.73
2018-12-19T06:38:02.203Z,103.80
2018-12-19T06:40:37.524Z,104.70
2018-12-19T06:43:07.594Z,120.43
2018-12-19T06:45:37.657Z,101.60
2018-12-19T06:48:07.690Z,102.90
2018-12-19T06:50:37.810Z,77.37
2018-12-19T06:53:08.031Z,94.50
2018-12-19T06:55:38.105Z,93.50
2018-12-19T06:58:08.229Z,88.87
2018-12-19T07:00:39.060Z,59.77
2018-12-19T07:03:09.147Z,76.33
2018-12-19T07:05:39.153Z,80.57
2018-12-19T07:08:09.308Z,78.13
2018-12-19T07:10:39.439Z,83.67
2018-12-19T07:13:09.644Z,84.00
2018-12-19T07:15:39.904Z,85.13
2018-12-19T07:18:10.093Z,76.63
2018-12-19T07:20:40.355Z,78.57
2018-12-19T07:23:10.498Z,72.20
2018-12-19T07:25:41.793Z,75.23
2018-12-19T07:28:11.878Z,73.13
2018-12-19T07:30:42.077Z,69.97
2018-12-19T07:33:12.960Z,69.33
2018-12-19T07:35:43.119Z,63.60
2018-12-19T07:38:14.240Z,58.43
2018-12-19T07:40:45.747Z,69.60
2018-12-19T07:43:16.068Z,70.23
2018-12-19T07:45:46.271Z,69.97
2018-12-19T07:48:16.508Z,69.93
2018-12-19T07:50:47.920Z,47.03
2018-12-19T07:53:18.008Z,62.90
2018-12-19T07:55:48.505Z,64.17
2018-12-19T07:58:18.762Z,68.87
2018-12-19T08:00:48.953Z,54.13
2018-12-19T08:03:19.085Z,63.10
2018-12-19T08:05:49.229Z,59.37
2018-12-19T08:08:19.471Z,56.90
2018-12-19T08:10:52.350Z,61.13
2018-12-19T08:13:21.910Z,64.57
2018-12-19T08:15:52.071Z,64.73
2018-12-19T08:18:22.120Z,62.00
2018-12-19T08:20:52.253Z,42.13
2018-12-19T08:23:22.449Z,56.27
2018-12-19T08:25:52.691Z,32.43
2018-12-19T08:28:22.772Z,59.40
2018-12-19T08:30:52.873Z,59.73
2018-12-19T08:33:23.037Z,55.47
2018-12-19T08:35:53.245Z,57.40
2018-12-19T08:38:23.359Z,51.33
2018-12-19T08:40:58.696Z,58.97
2018-12-19T08:43:26.756Z,55.77
2018-12-19T08:45:59.225Z,56.63
2018-12-19T08:48:29.301Z,54.60
2018-12-19T08:50:59.421Z,55.47
2018-12-19T08:53:29.734Z,57.90
2018-12-19T08:55:59.855Z,57.93
2018-12-19T08:58:30.076Z,61.47
2018-12-19T09:01:00.156Z,55.53
2018-12-19T09:03:34.849Z,55.53
2018-12-19T09:06:05.024Z,53.73
2018-12-19T09:08:35.240Z,56.40
2018-12-19T09:11:06.048Z,53.43
2018-12-19T09:13:36.305Z,53.27
2018-12-19T09:16:10.364Z,50.73
2018-12-19T09:18:40.484Z,47.80
2018-12-19T09:21:21.388Z,49.47
2018-12-19T09:23:51.449Z,51.03
2018-12-19T09:26:21.775Z,49.33
2018-12-19T09:28:51.828Z,50.03
2018-12-19T09:31:22.072Z,51.70
2018-12-19T09:33:52.445Z,51.37
2018-12-19T09:36:23.675Z,45.47
2018-12-19T09:38:54.035Z,49.97
2018-12-19T09:41:25.027Z,47.90
2018-12-19T09:43:55.115Z,47.77
2018-12-19T09:46:25.198Z,40.73
2018-12-19T09:48:55.242Z,47.37
2018-12-19T09:51:25.372Z,45.47
2018-12-19T09:53:55.616Z,46.90
2018-12-19T09:56:25.825Z,45.77
2018-12-19T09:58:55.877Z,43.90
2018-12-19T10:01:26.108Z,45.30
2018-12-19T10:03:56.290Z,46.20
2018-12-19T10:06:26.370Z,47.00
2018-12-19T10:08:56.387Z,39.17
2018-12-19T10:11:26.741Z,43.07
2018-12-19T10:13:57.522Z,25.30
2018-12-19T10:16:27.587Z,45.53
2018-12-19T10:18:57.651Z,42.90
2018-12-19T10:21:27.686Z,45.23
2018-12-19T10:23:57.889Z,45.60
2018-12-19T10:26:27.928Z,48.47
2018-12-19T10:28:58.022Z,42.57
2018-12-19T10:31:28.112Z,40.70
2018-12-19T10:33:58.262Z,43.70
2018-12-19T10:36:38.644Z,44.83
2018-12-19T10:39:15.285Z,38.90
2018-12-19T10:41:45.452Z,42.00
2018-12-19T10:44:15.737Z,42.77
2018-12-19T10:46:45.857Z,36.23
2018-12-19T10:49:15.925Z,43.83
2018-12-19T10:51:46.093Z,32.63
2018-12-19T10:54:16.226Z,46.00
2018-12-19T10:56:46.325Z,45.33
2018-12-19T10:59:16.498Z,44.00
2018-12-19T11:01:46.721Z,43.30
2018-12-19T11:20:48.383Z,44.97
2018-12-19T11:23:22.170Z,44.70
2018-12-19T11:25:52.272Z,42.70
2018-12-19T11:28:22.321Z,44.40
2018-12-19T11:30:52.421Z,30.27
2018-12-19T11:33:22.566Z,48.13
2018-12-19T11:35:52.616Z,42.60
2018-12-19T11:38:22.691Z,40.20
2018-12-19T11:40:52.784Z,39.83
2018-12-19T11:43:23.147Z,45.57
2018-12-19T11:45:53.191Z,46.20
2018-12-19T11:49:10.695Z,47.27
2018-12-19T11:57:43.959Z,42.23
2018-12-19T12:00:21.121Z,43.37
2018-12-19T12:02:58.058Z,45.00
2018-12-19T12:05:28.697Z,52.33
2018-12-19T12:08:00.504Z,50.23
2018-12-19T12:10:31.749Z,50.47
2018-12-19T12:13:02.681Z,29.20
2018-12-19T12:15:33.537Z,50.73
2018-12-19T12:18:04.471Z,50.83
2018-12-19T12:20:35.563Z,47.70
2018-12-19T12:23:07.153Z,46.20
2018-12-19T12:25:37.790Z,47.27
2018-12-19T12:28:08.793Z,47.23
2018-12-19T12:30:39.425Z,43.10
2018-12-19T12:33:09.510Z,48.77
2018-12-19T12:35:40.023Z,50.27
2018-12-19T12:38:10.087Z,44.33
2018-12-19T12:40:40.208Z,44.27
2018-12-19T12:43:10.555Z,42.47
2018-12-19T12:45:41.917Z,43.33
2018-12-19T12:48:12.199Z,45.47
2018-12-19T12:50:42.303Z,51.40
2018-12-19T12:53:12.415Z,52.17
2018-12-19T12:55:42.508Z,46.07
2018-12-19T12:58:13.522Z,46.30
2018-12-19T13:00:43.521Z,43.37
2018-12-19T13:03:13.928Z,41.87
2018-12-19T13:05:44.050Z,35.80
2018-12-19T13:08:14.335Z,44.83
2018-12-19T13:10:44.526Z,41.10
2018-12-19T13:13:16.436Z,42.57
2018-12-19T13:15:47.781Z,37.27
2018-12-19T13:18:36.367Z,39.73
2018-12-19T13:21:32.440Z,44.40
2018-12-19T13:24:03.804Z,38.13
2018-12-19T13:26:36.039Z,41.07
2018-12-19T13:29:06.783Z,40.13
2018-12-19T13:31:38.637Z,40.70
2018-12-19T13:34:09.213Z,41.53
2018-12-19T13:36:40.069Z,40.60
2018-12-19T13:39:10.391Z,38.53
2018-12-19T13:41:41.122Z,38.70
2018-12-19T13:44:11.266Z,39.57
2018-12-19T13:46:42.057Z,38.93
2018-12-19T13:49:12.611Z,48.93
2018-12-19T13:51:42.866Z,55.30
2018-12-19T13:54:12.939Z,83.13
2018-12-19T13:56:43.076Z,74.13
2018-12-19T13:59:13.753Z,86.80
2018-12-19T14:01:43.901Z,56.93
2018-12-19T14:04:13.995Z,72.77
2018-12-19T14:06:44.097Z,60.77
2018-12-19T14:09:14.136Z,61.43
2018-12-19T14:11:44.185Z,60.27
2018-12-19T14:14:14.256Z,64.07
2018-12-19T14:16:44.325Z,56.73
2018-12-19T14:19:14.387Z,50.40
2018-12-19T14:21:44.552Z,47.33
2018-12-19T14:24:14.632Z,43.93
2018-12-19T14:26:44.694Z,42.10
2018-12-19T14:29:14.788Z,45.30
2018-12-19T14:31:44.847Z,43.83
2018-12-19T14:34:14.893Z,42.90
2018-12-19T14:36:45.066Z,41.27
2018-12-19T14:39:15.287Z,43.27
2018-12-19T14:41:45.505Z,50.00
2018-12-19T14:44:15.553Z,55.90
2018-12-19T14:46:45.629Z,50.63
2018-12-19T14:49:15.656Z,49.17
2018-12-19T14:51:46.061Z,45.77
2018-12-19T14:54:16.272Z,47.47
2018-12-19T14:56:46.583Z,38.57
2018-12-19T14:59:17.189Z,47.20
2018-12-19T15:01:47.393Z,46.70
2018-12-19T15:04:17.601Z,60.97
2018-12-19T15:06:47.816Z,59.27
2018-12-19T15:09:17.868Z,49.97
2018-12-19T15:11:48.041Z,45.63
2018-12-19T15:14:18.079Z,49.13
2018-12-19T15:16:48.137Z,48.47
2018-12-19T15:19:18.202Z,41.57
2018-12-19T15:21:48.349Z,37.10
2018-12-19T15:24:18.514Z,41.50
2018-12-19T15:26:48.595Z,34.27
2018-12-19T15:29:18.677Z,40.43
2018-12-19T15:31:48.841Z,39.47
2018-12-19T15:34:18.888Z,43.27
2018-12-19T15:36:48.961Z,43.33
2018-12-19T15:39:19.010Z,52.23
2018-12-19T15:41:49.049Z,33.80
2018-12-19T15:44:19.092Z,40.27
2018-12-19T15:46:49.143Z,39.30
2018-12-19T15:49:19.174Z,50.37
2018-12-19T15:51:49.219Z,45.73
2018-12-19T15:54:19.274Z,41.80
2018-12-19T15:56:49.381Z,42.67
2018-12-19T15:59:19.450Z,36.40
2018-12-19T16:01:49.657Z,33.83
2018-12-19T16:04:19.757Z,38.57
2018-12-19T16:06:51.481Z,37.93
2018-12-19T16:09:21.778Z,36.53
2018-12-19T16:11:51.782Z,36.47
2018-12-19T16:14:21.882Z,35.20
2018-12-19T16:16:51.967Z,36.40
2018-12-19T16:19:22.034Z,36.13
2018-12-19T16:21:52.029Z,43.27
2018-12-19T16:24:22.924Z,49.13
2018-12-19T16:26:52.981Z,41.87
2018-12-19T16:29:23.066Z,47.50
2018-12-19T16:31:53.091Z,45.53
2018-12-19T16:34:23.157Z,42.30
2018-12-19T16:36:53.281Z,42.87
2018-12-19T16:39:23.506Z,44.60
2018-12-19T16:41:53.545Z,50.00
2018-12-19T16:44:24.054Z,52.33
2018-12-19T16:46:54.084Z,43.07
2018-12-19T16:49:24.151Z,51.47
2018-12-19T16:51:54.246Z,53.33
2018-12-19T16:54:24.372Z,53.17
2018-12-19T16:56:54.444Z,56.03
2018-12-19T16:59:24.556Z,58.20
2018-12-19T17:01:54.688Z,57.27
2018-12-19T17:04:24.813Z,57.07
2018-12-19T17:06:54.997Z,63.00
2018-12-19T17:09:25.093Z,59.50
2018-12-19T17:11:55.238Z,66.83
2018-12-19T17:14:25.354Z,98.33
2018-12-19T17:16:55.390Z,69.77
2018-12-19T17:19:25.450Z,75.53
2018-12-19T17:21:55.467Z,68.53
2018-12-19T17:24:30.790Z,77.33
2018-12-19T17:27:00.769Z,81.50
2018-12-19T17:29:30.901Z,74.60
2018-12-19T17:32:01.074Z,89.83
2018-12-19T17:34:31.098Z,73.07
2018-12-19T17:37:01.089Z,69.37
2018-12-19T17:39:31.224Z,74.03
2018-12-19T17:42:01.280Z,66.00
2018-12-19T17:44:37.825Z,66.90
2018-12-19T17:47:07.872Z,72.67
2018-12-19T17:49:37.950Z,64.53
2018-12-19T17:52:08.018Z,70.40
2018-12-19T17:54:38.126Z,69.80
2018-12-19T17:57:08.129Z,65.23
2018-12-19T17:59:38.180Z,60.00
2018-12-19T18:02:08.213Z,63.93
2018-12-19T18:04:38.304Z,63.00
2018-12-19T18:07:08.356Z,63.07
2018-12-19T18:09:38.382Z,59.93
2018-12-19T18:12:08.489Z,61.07
2018-12-19T18:14:38.482Z,65.17
2018-12-19T18:17:08.499Z,68.73
2018-12-19T18:19:38.511Z,63.07
2018-12-19T18:22:08.516Z,73.37
2018-12-19T18:24:39.530Z,71.30
2018-12-19T18:27:09.623Z,71.80
2018-12-19T18:29:39.649Z,68.73
2018-12-19T18:32:09.663Z,61.20
2018-12-19T18:34:39.667Z,64.00
2018-12-19T18:37:09.743Z,62.87
2018-12-19T18:39:39.809Z,73.10
2018-12-19T18:42:09.859Z,68.93
2018-12-19T18:44:39.880Z,70.37
2018-12-19T18:47:10.914Z,58.10
2018-12-19T18:49:40.920Z,64.77
2018-12-19T18:52:11.656Z,55.40
2018-12-19T18:54:41.734Z,62.53
2018-12-19T18:57:13.290Z,61.07
2018-12-19T18:59:48.052Z,58.83
2018-12-19T19:02:18.119Z,56.07
2018-12-19T19:04:48.338Z,60.50
2018-12-19T19:07:18.469Z,58.03
2018-12-19T19:12:50.180Z,62.60
2018-12-19T19:15:20.238Z,64.63
2018-12-19T19:17:50.342Z,68.70
2018-12-19T19:20:20.382Z,69.43
2018-12-19T19:22:50.529Z,70.50
2018-12-19T19:25:20.720Z,66.30
2018-12-19T19:27:50.924Z,65.47
2018-12-19T19:30:20.937Z,69.13
2018-12-19T19:32:51.496Z,67.47
2018-12-19T19:35:21.505Z,74.03
2018-12-19T19:37:51.566Z,73.30
2018-12-19T19:40:22.739Z,68.23
2018-12-19T19:42:52.859Z,69.97
2018-12-19T19:45:22.881Z,61.40
2018-12-19T19:47:52.939Z,68.07
2018-12-19T19:50:22.994Z,68.67
2018-12-19T19:52:53.205Z,75.00
2018-12-19T19:55:23.267Z,61.67
2018-12-19T19:57:53.501Z,63.57
2018-12-19T20:00:31.721Z,72.70
2018-12-19T20:03:02.302Z,69.90
2018-12-19T20:05:32.493Z,71.00
2018-12-19T20:08:02.600Z,76.90
2018-12-19T20:10:32.787Z,65.80
2018-12-19T20:13:03.259Z,64.97
2018-12-19T20:15:33.406Z,65.73
2018-12-19T20:18:04.078Z,66.13
2018-12-19T20:20:34.212Z,64.53
2018-12-19T20:23:04.504Z,63.87
2018-12-19T20:25:34.721Z,62.83
2018-12-19T20:28:04.926Z,59.63
2018-12-19T20:30:35.080Z,59.40
2018-12-19T20:33:05.239Z,58.03
2018-12-19T20:35:35.546Z,59.73
2018-12-19T20:38:05.681Z,58.50
2018-12-19T20:40:35.898Z,60.23
2018-12-19T20:43:06.683Z,54.30
2018-12-19T20:45:38.310Z,62.27
2018-12-19T20:48:08.363Z,61.83
2018-12-19T20:50:38.472Z,62.83
2018-12-19T20:53:08.535Z,69.87
2018-12-19T20:55:38.631Z,60.50
2018-12-19T20:58:08.774Z,65.63
2018-12-19T21:00:38.930Z,73.73
2018-12-19T21:03:08.961Z,64.57
2018-12-19T21:05:39.152Z,64.07
2018-12-19T21:08:09.261Z,78.70
2018-12-19T21:10:39.434Z,112.10
2018-12-19T21:13:09.507Z,91.43
2018-12-19T21:15:39.621Z,81.67
2018-12-19T21:18:15.381Z,73.70
2018-12-19T21:20:45.465Z,73.40
2018-12-19T21:23:15.517Z,79.97
2018-12-19T21:25:45.569Z,92.30
2018-12-19T21:28:15.725Z,97.47
2018-12-19T21:30:46.097Z,92.40
2018-12-19T21:33:16.565Z,86.17
2018-12-19T21:35:46.679Z,76.30
2018-12-19T21:38:16.970Z,64.27
2018-12-19T21:40:47.004Z,73.83
2018-12-19T21:43:17.072Z,68.03
2018-12-19T21:45:51.725Z,66.93
2018-12-19T21:48:19.471Z,66.33
2018-12-19T21:50:49.608Z,62.27
2018-12-19T21:53:19.847Z,66.73
2018-12-19T21:55:50.099Z,67.07
2018-12-19T21:58:20.177Z,66.50
2018-12-19T22:00:50.240Z,62.60
2018-12-19T22:03:20.415Z,66.80
2018-12-19T22:05:50.587Z,68.07
2018-12-19T22:08:20.725Z,69.80
2018-12-19T22:10:50.840Z,63.20
2018-12-19T22:13:21.173Z,68.20
2018-12-19T22:15:51.609Z,66.57
2018-12-19T22:18:27.013Z,76.50
2018-12-19T22:20:57.503Z,74.60
2018-12-19T22:23:27.698Z,73.97
2018-12-19T22:25:58.182Z,72.40
2018-12-19T22:28:28.456Z,76.43
2018-12-19T22:30:58.575Z,73.33
2018-12-19T22:33:28.666Z,73.70
2018-12-19T22:35:59.184Z,69.13
2018-12-19T22:38:29.334Z,68.70
2018-12-19T22:40:59.585Z,63.80
2018-12-19T22:43:29.884Z,64.33
2018-12-19T22:46:00.079Z,64.60
2018-12-19T22:48:30.231Z,66.37
2018-12-19T22:51:00.465Z,67.53
2018-12-19T22:53:30.513Z,65.17
2018-12-19T22:56:00.586Z,69.27
2018-12-19T22:58:30.789Z,70.37
2018-12-19T23:01:06.094Z,62.87
2018-12-19T23:03:41.331Z,64.47
2018-12-19T23:06:11.423Z,67.20
2018-12-19T23:08:41.794Z,63.80
2018-12-19T23:11:11.950Z,60.53
2018-12-19T23:13:42.017Z,59.33
2018-12-19T23:16:11.519Z,57.40
2018-12-19T23:18:47.299Z,61.83
2018-12-19T23:21:23.101Z,60.90
2018-12-19T23:23:58.877Z,62.07
2018-12-19T23:26:31.061Z,62.53
2018-12-19T23:29:03.365Z,62.73
2018-12-19T23:31:35.055Z,59.10
2018-12-19T23:34:05.184Z,60.40
2018-12-19T23:36:35.355Z,58.90
2018-12-19T23:39:07.801Z,60.80
2018-12-19T23:41:37.950Z,58.20
2018-12-19T23:44:08.107Z,58.80
2018-12-19T23:46:38.141Z,60.10
2018-12-19T23:49:08.236Z,65.73
2018-12-19T23:51:38.283Z,60.10
2018-12-19T23:54:08.397Z,58.87
2018-12-19T23:56:38.474Z,60.20
2018-12-19T23:59:08.574Z,58.60
